Dulas, United Kingdom
Current Conditions -  °F | °C
As of 5:50 AM on Friday 31 Oct 2014 (Local Time) from EGOV Reporting Station
Broken Clouds Broken Clouds  
Wind Chill: 61°   Ceiling: 1100
Heat Index: 61°   Visibility: 6mi
Dew Point: 59°   Wind: 24mph
Humidity: 94%   Direction: 170°S
Pressure: 29.83"   Gusts: NA
Location:  53.37°N, 4.3°W
Report Text: EGOV 310550Z 17021KT 9999 BKN011 BKN042 16/15 Q1010 GRN
Loading
Personal Weather Stations






























Interactive Weather Map
Tropical Storm Tracking
New forecast layout! Learn more

10-Day Weather Forecast

Advertisements
Track Severe Weather on mobile